x

Cape Cleare - 17 Nm South Of Montague Is, Ak (46076) Wave Buoy

2:50am - Tue 31st Mar 2015 All times are AKDT. -8 hours from GMT.

  • Sig Wave height 5.6ft
  • Peak Period 11s
  • Average Period 7s
  • Wind
    9mph, 13mph gusts
  • Sea Temp 43°f
  • Air Temp 41°f
  • Sea Pressure 999.5mb
  • Cape Cleare - 17 Nm South Of Montague Is,  Ak
  • Cape Cleare - 17 Nm South Of Montague Is,  Ak

More Historic Weather Station data

Upgrade to MSW Pro to gain access to the past 30 days of data for over 8000 Wavebouys and Weather Stations around the globe.

Join Pro

Comparision Forecast

View Surf forecast
   
Tue 03/31 2:50am 5.5ft 11s 7s 9 13 mph 999.5mb 43f 41f
1:50am  -   -   -  11
mph
- - -
12:50am  -   -   -  9 11 mph 999.3mb 43f 41f
Mon 03/30 11:50pm  -   -   -  9 11 mph 999.5mb 43f 41f
10:50pm 6ft 10s 7s 4 7 mph 999.9mb 43f 41f
9:50pm 6.5ft 11s 7s 7
mph
1000.1mb 43f 41f
8:50pm 6ft 9s 7s 9 11 mph 1000.5mb 43f 41f
7:50pm 6ft 10s 7s 11 13 mph 1000.6mb 43f 40f
6:50pm  -   -   -  13 16 mph 1001mb 43f 41f
3:50pm  -   -   -  11
mph
- - -
1:50pm  -   -   -  9 11 mph 1002.3mb 43f 42f
12:50pm  -   -   -  9 11 mph 1002.2mb 43f 41f
11:50am 7ft 11s 7s 4 7 mph 1002.2mb 43f 41f
10:50am 8ft 10s 7s 11 13 mph 1002.1mb 43f 41f
9:50am 8ft 12s 7s 11 13 mph 1001.9mb 42f 41f
8:50am 8ft 11s 7s 11 18 mph 1002mb 42f 40f
7:50am 8ft 10s 7s 11 13 mph 1002mb 42f 41f
6:50am 7.5ft 9s 7s 11 13 mph 1002mb 42f 41f
5:50am 8ft 11s 7s 16 18 mph 1002.2mb 43f 40f
4:50am 8ft 10s 7s 9 11 mph 1002.2mb 43f 41f
3:50am 8ft 11s 7s 11 13 mph 1002.3mb 43f 40f
2:50am 9ft 9s 7s 13 16 mph 1002.1mb 43f 42f
1:50am 8.5ft 9s 7s 13 18 mph 1001.7mb 43f 42f
12:50am 8ft 9s 7s 13 16 mph 1001.1mb 43f 42f
Sun 03/29 11:50pm  -   -   -  16 18 mph 1000.7mb 43f 42f
10:50pm 9ft 11s 7s 16 18 mph 1000.2mb 43f 42f
9:50pm 9ft 9s 7s 11 13 mph 999.9mb 43f 42f
8:50pm 11ft 12s 7s 11 13 mph 999.4mb 44f 42f
7:50pm 10.5ft 12s 7s 16 18 mph 998.6mb 44f 43f
6:50pm 10ft 11s 7s 13 16 mph 998.1mb 43f 43f
5:50pm 10.5ft 11s 7s 16 18 mph 997.5mb 43f 43f
4:50pm 10ft 11s 7s 16 18 mph 997.1mb 43f 42f
3:50pm 11ft 10s 7s 16 20 mph 996.4mb 43f 43f
2:50pm 12ft 12s 7s 20 25 mph 995.6mb 43f 43f
1:50pm 12ft 11s 7s 20 25 mph 994.6mb 43f 44f
12:50pm  -   -   -  20 25 mph 993.8mb 43f 43f
11:50am  -   -   -  20
mph
993mb 43f 43f
10:50am  -   -   -  25 29 mph 992.3mb 43f 43f
9:50am  -   -   -  20 25 mph 991.6mb 43f 43f
8:50am 10ft 10s 7s 20 25 mph 991.2mb 43f 42f
7:50am 10ft 12s 7s 20 25 mph 990.6mb 43f 42f
6:50am  -   -   -  18 22 mph 990.4mb 42f 42f
4:50am  -   -   -  18
mph
- - 42f
3:50am  -   -   -  20
mph
990.3mb 42f 42f
2:50am 12.5ft 11s 7s 16 22 mph 990.2mb 42f 43f
12:50am  -   -   -  38 45 mph 988.8mb 42f 38f
Sat 03/28 11:50pm 11.5ft 11s 6s 36 45 mph 988.7mb 42f 39f
10:50pm  -   -   -  31 38 mph 989.5mb 42f 42f
9:50pm  -   -   -  25 31 mph 990.6mb 42f 42f
8:50pm  -   -   -  20 27 mph 991.5mb 42f 41f
6:50pm  -   -   -  29 36 mph 992.7mb 42f 41f
5:50pm 14ft 10s 6s 31 38 mph 993.1mb 42f 42f
4:50pm  -   -   -  31 38 mph 993.9mb 42f 43f
3:50pm  -   -   -  31 40 mph 994.9mb 42f 41f
2:50pm  -   -   -  31 36 mph 995.6mb 42f 42f
12:50pm  -   -   -  29
mph
- - 41f
11:50am  -   -   -  31
mph
997mb 42f 41f
10:50am  -   -   -  27 34 mph 997.3mb 42f 41f
9:50am 13ft 9s 6s 29 36 mph 997.5mb 42f 41f
8:50am 11ft 7s 6s 27 31 mph 997.7mb 42f 41f
7:50am 10ft 7s 6s 27 34 mph 997.9mb 42f 41f
6:50am  -   -   -  27 34 mph 998.1mb 43f 41f
5:50am 8.5ft 6s 5s 31 36 mph 998.2mb 43f 42f
4:50am  -   -   -  29
mph
- - 41f
3:50am 8ft 11s 5s 27 31 mph 999.5mb 43f 42f
2:50am  -   -   -  25 29 mph 1000mb 42f 42f
Fri 03/27 11:50pm 8ft 10s 6s 16 20 mph 1001.3mb 42f 41f
10:50pm  -   -   -  22 25 mph 1001.4mb 42f 42f
9:50pm  -   -   -  20 25 mph 1001.5mb 42f 42f
8:50pm  -   -   -  18 22 mph 1001.4mb 42f 41f
7:50pm 8.5ft 10s 7s 18 20 mph 1001.9mb 42f 41f
6:50pm 8ft 10s 7s 18 20 mph 1002.1mb 42f 42f
5:50pm 7ft 9s 6s 16 18 mph 1002.6mb 42f 41f
4:50pm 7ft 10s 6s 20 27 mph 1003mb 42f 41f
3:50pm 7ft 8s 6s 16 20 mph 1003.5mb 42f 42f
2:50pm 8ft 9s 7s 9
mph
1003.8mb 42f 41f
1:50pm 7.5ft 11s 7s 9 11 mph 1004.1mb 42f 42f